Time;durP1;ratioP1;P1;durP2;ratioP2;P2;SDS_P1;SDS_P2;PMS_P1;PMS_P2;Temp;Humidity;BMP_temperature;BMP_pressure;BME280_temperature;BME280_humidity;BME280_pressure;Samples;Min_cycle;Max_cycle;Signal;HPM_P1;HPM_P2
2023/06/23 00:00:48;;;;;;;1.83;1.73;;;21.00;99.90;;;;;;5090025;28;20437;-78
2023/06/23 00:03:49;;;;;;;2.10;1.90;;;21.00;99.90;;;;;;5089661;28;20454;-78
2023/06/23 00:06:31;;;;;;;2.10;2.00;;;21.10;99.90;;;;;;5084418;28;20442;-78
2023/06/23 00:09:22;;;;;;;2.40;2.30;;;21.10;99.90;;;;;;5083913;28;20450;-77
2023/06/23 00:12:07;;;;;;;1.90;1.80;;;21.00;99.90;;;;;;5088419;28;20475;-77
2023/06/23 00:15:31;;;;;;;;;;;;;;;;;;;;;
2023/06/23 00:21:21;;;;;;;1.80;1.70;;;21.00;99.90;;;;;;5100721;28;20458;-78
2023/06/23 00:23:56;;;;;;;2.50;2.37;;;20.90;99.90;;;;;;5110930;28;20473;-77
2023/06/23 00:26:51;;;;;;;2.30;2.10;;;20.90;99.90;;;;;;5109547;28;20473;-78
2023/06/23 00:29:36;;;;;;;2.10;2.00;;;21.00;99.90;;;;;;5109728;28;20457;-79
2023/06/23 00:32:30;;;;;;;2.27;2.17;;;21.00;99.90;;;;;;5108071;28;20464;-77
2023/06/23 00:35:26;;;;;;;2.10;2.00;;;21.00;99.90;;;;;;5105751;28;20474;-77
2023/06/23 00:41:11;;;;;;;4.60;2.00;;;21.00;99.90;;;;;;5104589;28;20442;-76
2023/06/23 00:44:11;;;;;;;1.70;1.60;;;20.90;99.90;;;;;;5103848;28;20489;-78
2023/06/23 00:50:10;;;;;;;2.00;1.90;;;20.80;99.90;;;;;;5091933;28;20435;-78
2023/06/23 00:53:38;;;;;;;2.30;1.73;;;20.80;99.90;;;;;;5106249;28;20467;-77
2023/06/23 00:56:24;;;;;;;2.20;2.10;;;20.70;99.90;;;;;;5105927;28;20480;-77
2023/06/23 00:59:05;;;;;;;2.20;2.10;;;20.60;99.90;;;;;;5107072;28;20473;-78
2023/06/23 01:01:47;;;;;;;2.23;2.13;;;20.60;99.90;;;;;;5106394;28;20446;-78
2023/06/23 01:04:47;;;;;;;4.07;2.10;;;20.60;99.90;;;;;;5105314;28;20445;-77
2023/06/23 01:07:51;;;;;;;1.93;1.83;;;20.60;99.90;;;;;;5106135;28;20455;-78
2023/06/23 01:13:54;;;;;;;3.23;2.93;;;20.50;99.90;;;;;;5095605;28;20460;-77
2023/06/23 01:20:26;;;;;;;3.30;3.10;;;20.20;99.90;;;;;;5081033;28;20517;-76
2023/06/23 01:27:08;;;;;;;3.90;3.70;;;19.70;99.90;;;;;;5090181;28;20513;-79
2023/06/23 01:30:05;;;;;;;3.70;3.50;;;19.50;99.90;;;;;;5116318;28;20468;-77
2023/06/23 01:36:52;;;;;;;4.10;3.80;;;19.20;99.90;;;;;;5117661;28;20497;-77
2023/06/23 01:42:47;;;;;;;5.20;4.70;;;18.80;99.90;;;;;;5074005;28;20454;-76
2023/06/23 01:49:18;;;;;;;4.73;4.43;;;18.60;99.90;;;;;;5079597;28;20432;-77
2023/06/23 01:55:22;;;;;;;5.73;5.30;;;18.50;99.90;;;;;;5106382;28;21309;-76
2023/06/23 01:58:24;;;;;;;5.57;5.00;;;18.40;99.90;;;;;;5104447;28;20452;-76
2023/06/23 02:01:11;;;;;;;5.37;4.97;;;18.40;99.90;;;;;;5105969;28;20903;-77
2023/06/23 02:06:57;;;;;;;5.13;4.73;;;18.30;99.90;;;;;;5083196;28;20444;-79
2023/06/23 02:09:45;;;;;;;6.10;5.60;;;18.20;99.90;;;;;;5105126;28;20451;-79
2023/06/23 02:12:31;;;;;;;5.30;4.80;;;18.20;99.90;;;;;;5104468;28;20551;-77
2023/06/23 02:15:18;;;;;;;4.70;4.30;;;18.30;99.90;;;;;;5103416;28;20504;-77
2023/06/23 02:18:05;;;;;;;4.47;4.10;;;18.20;99.90;;;;;;5099706;28;20487;-77
2023/06/23 02:21:04;;;;;;;3.57;3.27;;;18.10;99.90;;;;;;5096774;28;20448;-78
2023/06/23 02:23:56;;;;;;;3.83;3.10;;;18.00;99.90;;;;;;5100036;28;20556;-79
2023/06/23 02:26:42;;;;;;;3.23;3.03;;;17.90;99.90;;;;;;5104551;28;20475;-78
2023/06/23 02:29:43;;;;;;;3.47;3.27;;;17.90;99.90;;;;;;5109390;28;20455;-76
2023/06/23 02:32:54;;;;;;;3.43;3.23;;;17.90;99.90;;;;;;5111509;28;20460;-78
2023/06/23 02:35:55;;;;;;;4.03;3.63;;;17.80;99.90;;;;;;5109769;28;20482;-78
2023/06/23 02:38:46;;;;;;;3.77;3.57;;;17.80;99.90;;;;;;5103849;28;20535;-77
2023/06/23 02:41:57;;;;;;;4.10;3.80;;;17.70;99.90;;;;;;5111188;28;20444;-77
2023/06/23 02:44:54;;;;;;;;;;;;;;;;;;;;;
2023/06/23 02:47:56;;;;;;;4.90;4.50;;;17.80;99.90;;;;;;5110960;28;20452;-77
2023/06/23 03:00:21;;;;;;;6.27;5.73;;;17.70;99.90;;;;;;5101446;28;20432;-77
2023/06/23 03:06:01;;;;;;;7.47;6.73;;;17.70;99.90;;;;;;5104542;28;20436;-76
2023/06/23 03:14:57;;;;;;;10.63;9.63;;;17.70;99.90;;;;;;5097378;28;20467;-76
2023/06/23 03:17:49;;;;;;;10.47;9.57;;;17.70;99.90;;;;;;5100799;28;20432;-76
2023/06/23 03:20:41;;;;;;;11.70;10.70;;;17.40;99.90;;;;;;5099483;28;20448;-77
2023/06/23 03:23:42;;;;;;;10.67;9.57;;;17.60;99.90;;;;;;5092253;28;21236;-77
2023/06/23 03:26:18;;;;;;;10.30;9.33;;;17.70;99.90;;;;;;5092194;28;20456;-77
2023/06/23 03:29:07;;;;;;;11.30;10.30;;;17.70;99.90;;;;;;5097216;28;20444;-77
2023/06/23 03:32:14;;;;;;;10.60;9.70;;;17.70;99.90;;;;;;5098389;28;20425;-77
2023/06/23 03:38:01;;;;;;;11.40;10.23;;;17.70;99.90;;;;;;5093778;28;20447;-76
2023/06/23 03:40:59;;;;;;;11.73;10.83;;;17.70;99.90;;;;;;5095842;28;20448;-79
2023/06/23 03:43:47;;;;;;;10.63;9.83;;;17.70;99.90;;;;;;5096771;28;20483;-77
2023/06/23 03:46:37;;;;;;;12.20;11.10;;;17.70;99.90;;;;;;5097359;28;20521;-79
2023/06/23 03:49:24;;;;;;;12.63;11.53;;;17.80;99.90;;;;;;5101022;28;20515;-78
2023/06/23 03:52:11;;;;;;;12.13;11.13;;;17.70;99.90;;;;;;5101684;28;21013;-78
2023/06/23 03:54:50;;;;;;;12.10;11.10;;;17.80;99.90;;;;;;5101791;28;20447;-76
2023/06/23 04:00:54;;;;;;;11.60;10.60;;;17.80;99.90;;;;;;5101612;28;20424;-76
2023/06/23 04:03:53;;;;;;;11.50;10.60;;;17.90;99.90;;;;;;5101199;28;20504;-77
2023/06/23 04:09:31;;;;;;;13.73;12.47;;;18.00;99.90;;;;;;5096010;28;20531;-77
2023/06/23 04:12:09;;;;;;;12.90;11.70;;;18.00;99.90;;;;;;5101255;28;20594;-77
2023/06/23 04:14:53;;;;;;;13.67;12.37;;;18.10;99.90;;;;;;5101841;28;20552;-77
2023/06/23 04:17:35;;;;;;;12.80;11.60;;;18.10;99.90;;;;;;5102526;28;20464;-77
2023/06/23 04:20:12;;;;;;;13.33;12.13;;;18.10;99.90;;;;;;5101029;28;20538;-77
2023/06/23 04:23:03;;;;;;;13.57;12.33;;;18.10;99.90;;;;;;5101784;28;20491;-77
2023/06/23 04:25:34;;;;;;;14.37;13.00;;;18.10;99.90;;;;;;5103168;28;20455;-77
2023/06/23 04:28:11;;;;;;;13.03;11.93;;;18.10;99.90;;;;;;5103302;28;20440;-77
2023/06/23 04:30:51;;;;;;;14.03;12.73;;;18.20;99.90;;;;;;5101193;28;20451;-77
2023/06/23 04:33:32;;;;;;;14.10;12.80;;;18.20;99.90;;;;;;5099979;28;20535;-77
2023/06/23 04:36:36;;;;;;;12.30;11.30;;;18.20;99.90;;;;;;5099238;28;20471;-77
2023/06/23 04:39:33;;;;;;;14.63;13.43;;;18.30;99.90;;;;;;5092472;28;20459;-77
2023/06/23 04:42:24;;;;;;;15.93;14.47;;;18.30;99.90;;;;;;5100423;28;20460;-78
2023/06/23 04:45:16;;;;;;;14.13;12.83;;;18.40;99.90;;;;;;5083639;28;20493;-76
2023/06/23 04:48:13;;;;;;;14.07;12.87;;;18.40;99.90;;;;;;5098435;28;20455;-77
2023/06/23 04:51:04;;;;;;;14.10;13.00;;;18.50;99.90;;;;;;5105758;28;20474;-77
2023/06/23 04:53:59;;;;;;;;;;;;;;;;;;;;;
2023/06/23 04:56:37;;;;;;;15.03;13.57;;;18.60;99.90;;;;;;5098364;28;20499;-78
2023/06/23 04:59:11;;;;;;;16.50;15.10;;;18.50;99.90;;;;;;5099580;28;20449;-77
2023/06/23 05:01:43;;;;;;;16.17;14.70;;;18.50;99.90;;;;;;5099725;28;20505;-78
2023/06/23 05:04:17;;;;;;;16.00;14.50;;;18.50;99.90;;;;;;5104685;28;20463;-77
2023/06/23 05:06:47;;;;;;;17.37;15.77;;;18.50;99.90;;;;;;5106632;28;20448;-77
2023/06/23 05:09:17;;;;;;;17.30;15.70;;;18.50;99.90;;;;;;5104494;28;20455;-78
2023/06/23 05:11:48;;;;;;;17.80;16.10;;;18.60;99.90;;;;;;5104622;28;20449;-77
2023/06/23 05:14:18;;;;;;;18.07;16.27;;;18.60;99.90;;;;;;5107053;28;20535;-77
2023/06/23 05:16:49;;;;;;;19.00;17.30;;;18.70;99.90;;;;;;5106708;28;20476;-76
2023/06/23 05:19:21;;;;;;;17.77;16.23;;;18.60;99.90;;;;;;5105883;28;20448;-79
2023/06/23 05:21:53;;;;;;;18.97;17.10;;;18.60;99.90;;;;;;5105419;28;20470;-76
2023/06/23 05:24:32;;;;;;;19.70;17.90;;;18.60;99.90;;;;;;5105299;28;20458;-77
2023/06/23 05:27:21;;;;;;;20.70;18.70;;;18.70;99.90;;;;;;5102211;28;20825;-77
2023/06/23 05:32:59;;;;;;;21.03;18.90;;;18.80;99.90;;;;;;5097225;28;20480;-78
2023/06/23 05:35:31;;;;;;;20.93;19.03;;;18.80;99.90;;;;;;5100752;28;20452;-78
2023/06/23 05:38:02;;;;;;;23.10;20.87;;;18.80;99.90;;;;;;5099868;28;20514;-79
2023/06/23 05:40:35;;;;;;;22.13;20.03;;;18.80;99.90;;;;;;5101613;28;20452;-78
2023/06/23 05:43:07;;;;;;;21.17;19.17;;;18.90;99.90;;;;;;5102666;28;20472;-78
2023/06/23 05:45:41;;;;;;;24.23;21.70;;;19.00;99.90;;;;;;5102353;28;20425;-79
2023/06/23 05:48:17;;;;;;;21.57;19.43;;;19.10;99.90;;;;;;5099429;28;20472;-78
2023/06/23 05:50:49;;;;;;;23.90;21.50;;;19.10;99.90;;;;;;5100301;28;20445;-79
2023/06/23 05:53:20;;;;;;;23.30;20.90;;;19.10;99.90;;;;;;5101346;28;20452;-77
2023/06/23 05:55:59;;;;;;;25.27;22.67;;;18.80;99.90;;;;;;5104269;28;20464;-79
2023/06/23 05:58:42;;;;;;;25.80;23.30;;;19.10;99.90;;;;;;5104365;28;20431;-78
2023/06/23 06:01:16;;;;;;;25.00;22.47;;;19.00;99.90;;;;;;5107539;28;20456;-78
2023/06/23 06:03:48;;;;;;;24.57;22.07;;;19.00;99.90;;;;;;5106374;28;20491;-79
2023/06/23 06:06:18;;;;;;;23.97;21.60;;;19.00;99.90;;;;;;5108153;28;20448;-76
2023/06/23 06:08:49;;;;;;;25.07;22.67;;;19.00;99.90;;;;;;5107499;28;20440;-77
2023/06/23 06:11:19;;;;;;;24.23;21.93;;;19.10;99.90;;;;;;5108886;28;20435;-77
2023/06/23 06:13:51;;;;;;;24.07;21.90;;;19.00;99.90;;;;;;5105621;28;20468;-78
2023/06/23 06:16:20;;;;;;;25.00;22.63;;;19.10;99.90;;;;;;5101156;28;20572;-77
2023/06/23 06:18:51;;;;;;;23.10;21.00;;;19.10;99.90;;;;;;5099796;28;20544;-76
2023/06/23 06:21:22;;;;;;;23.90;21.70;;;19.30;99.90;;;;;;5101853;28;20555;-78
2023/06/23 06:24:00;;;;;;;22.87;20.80;;;19.30;99.90;;;;;;5085150;28;20561;-77
2023/06/23 06:26:32;;;;;;;23.00;20.90;;;19.40;99.90;;;;;;5102404;28;20510;-78
2023/06/23 06:29:04;;;;;;;23.17;20.73;;;19.40;99.90;;;;;;5104070;28;20428;-77
2023/06/23 06:31:34;;;;;;;23.30;20.03;;;19.50;99.90;;;;;;5107424;28;20441;-77
2023/06/23 06:34:03;;;;;;;20.17;18.37;;;19.80;99.90;;;;;;5105585;28;20479;-78
2023/06/23 06:36:37;;;;;;;18.87;16.97;;;19.80;99.90;;;;;;5107773;28;20521;-78
2023/06/23 06:39:06;;;;;;;18.10;16.50;;;19.90;99.90;;;;;;5105648;28;20445;-78
2023/06/23 06:41:36;;;;;;;17.57;15.87;;;20.00;99.90;;;;;;5102754;28;20455;-77
2023/06/23 06:44:04;;;;;;;22.37;20.27;;;20.00;99.90;;;;;;5102183;28;20472;-77
2023/06/23 06:46:33;;;;;;;22.23;20.03;;;19.80;99.90;;;;;;5103654;28;20535;-77
2023/06/23 06:49:02;;;;;;;22.63;20.33;;;19.80;99.90;;;;;;5102138;28;20435;-78
2023/06/23 06:51:31;;;;;;;21.13;19.23;;;19.70;99.90;;;;;;5100443;28;20439;-79
2023/06/23 06:54:01;;;;;;;21.07;19.07;;;19.90;99.90;;;;;;5097057;28;20990;-78
2023/06/23 06:56:31;;;;;;;24.73;22.37;;;19.90;99.90;;;;;;5096746;28;20476;-77
2023/06/23 06:59:00;;;;;;;22.70;20.40;;;19.90;99.90;;;;;;5097495;28;20431;-77
2023/06/23 07:01:28;;;;;;;22.37;20.00;;;19.90;99.90;;;;;;5096811;28;20456;-78
2023/06/23 07:03:57;;;;;;;22.73;20.50;;;19.90;99.90;;;;;;5095711;28;20533;-79
2023/06/23 07:06:28;;;;;;;21.77;19.57;;;19.70;99.90;;;;;;5097515;28;20449;-78
2023/06/23 07:08:57;;;;;;;22.03;19.90;;;19.90;99.90;;;;;;5098018;28;20444;-79
2023/06/23 07:11:30;;;;;;;20.27;18.20;;;20.00;99.90;;;;;;5097229;28;20456;-78
2023/06/23 07:13:57;;;;;;;20.53;18.53;;;20.00;99.90;;;;;;5096550;28;20472;-77
2023/06/23 07:16:30;;;;;;;20.83;18.83;;;20.10;99.90;;;;;;5095534;28;20483;-78
2023/06/23 07:18:58;;;;;;;20.27;18.37;;;20.00;99.90;;;;;;5095510;28;20527;-78
2023/06/23 07:21:28;;;;;;;21.37;19.13;;;20.10;99.90;;;;;;5083421;28;20449;-76
2023/06/23 07:24:05;;;;;;;19.90;17.90;;;20.20;99.90;;;;;;5082020;28;20479;-78
2023/06/23 07:26:37;;;;;;;20.50;18.70;;;20.20;99.90;;;;;;5090943;28;20435;-78
2023/06/23 07:29:05;;;;;;;18.57;16.67;;;20.00;99.90;;;;;;5102775;28;20459;-77
2023/06/23 07:31:37;;;;;;;19.40;17.70;;;19.90;99.90;;;;;;5101290;28;20959;-77
2023/06/23 07:34:06;;;;;;;19.43;17.53;;;19.90;99.90;;;;;;5101898;28;20466;-77
2023/06/23 07:36:34;;;;;;;19.13;17.43;;;20.10;99.90;;;;;;5100492;28;20476;-78
2023/06/23 07:39:05;;;;;;;19.83;18.03;;;20.20;99.90;;;;;;5098008;28;20455;-78
2023/06/23 07:41:35;;;;;;;18.17;16.30;;;20.20;99.90;;;;;;5097503;28;20452;-77
2023/06/23 07:44:04;;;;;;;18.80;17.00;;;20.20;99.90;;;;;;5111932;28;20451;-78
2023/06/23 07:46:34;;;;;;;17.60;16.10;;;20.20;99.90;;;;;;5099967;28;20440;-77
2023/06/23 07:49:06;;;;;;;18.70;16.73;;;20.20;99.90;;;;;;5098634;28;20456;-77
2023/06/23 07:51:47;;;;;;;17.70;16.07;;;20.30;99.90;;;;;;5100360;28;20444;-76
2023/06/23 07:54:15;;;;;;;15.63;14.33;;;20.20;99.90;;;;;;5101456;28;20454;-77
2023/06/23 07:56:45;;;;;;;17.77;16.07;;;20.20;99.90;;;;;;5100800;28;20835;-76
2023/06/23 07:59:13;;;;;;;18.03;16.17;;;20.30;99.90;;;;;;5100613;28;20952;-76
2023/06/23 08:01:44;;;;;;;15.87;14.47;;;20.20;99.90;;;;;;5100432;28;20444;-77
2023/06/23 08:04:23;;;;;;;16.10;14.60;;;20.20;99.90;;;;;;5085912;28;20438;-77
2023/06/23 08:06:54;;;;;;;15.47;13.87;;;20.20;99.90;;;;;;5084550;28;20441;-77
2023/06/23 08:09:23;;;;;;;16.10;14.60;;;20.20;99.90;;;;;;5088844;28;20449;-77
2023/06/23 08:11:55;;;;;;;14.80;13.50;;;20.30;99.90;;;;;;5082434;28;20475;-77
2023/06/23 08:14:22;;;;;;;15.80;14.20;;;20.30;99.90;;;;;;5091784;28;20473;-77
2023/06/23 08:16:50;;;;;;;15.33;13.90;;;20.40;99.90;;;;;;5092704;28;20475;-77
2023/06/23 08:19:21;;;;;;;14.60;13.30;;;20.40;99.90;;;;;;5090125;28;20548;-78
2023/06/23 08:21:49;;;;;;;15.63;14.33;;;20.60;99.90;;;;;;5107824;28;20440;-79
2023/06/23 08:24:16;;;;;;;14.17;12.87;;;20.60;99.90;;;;;;5110485;28;20424;-79
2023/06/23 08:26:47;;;;;;;16.40;14.70;;;20.60;99.90;;;;;;5103851;28;20499;-79
2023/06/23 08:29:16;;;;;;;13.33;12.23;;;20.70;99.90;;;;;;5101160;28;20519;-78
2023/06/23 08:31:44;;;;;;;13.53;12.43;;;20.70;99.90;;;;;;5101925;28;20493;-77
2023/06/23 08:34:13;;;;;;;14.87;13.47;;;20.70;99.90;;;;;;5103609;28;20452;-78
2023/06/23 08:36:40;;;;;;;13.97;12.67;;;20.80;99.90;;;;;;5104240;28;20468;-77
2023/06/23 08:39:09;;;;;;;14.90;13.50;;;20.80;99.90;;;;;;5104998;28;20472;-78
2023/06/23 08:41:42;;;;;;;13.30;12.03;;;21.00;99.90;;;;;;5104539;28;20437;-79
2023/06/23 08:44:14;;;;;;;14.90;13.47;;;21.20;99.90;;;;;;5102768;28;20482;-79
2023/06/23 08:46:45;;;;;;;13.60;12.40;;;21.10;99.90;;;;;;5104537;28;20441;-77
2023/06/23 08:49:16;;;;;;;14.23;13.03;;;21.20;99.90;;;;;;5102494;28;21037;-79
2023/06/23 08:51:44;;;;;;;15.20;13.87;;;21.30;99.90;;;;;;5100480;28;20467;-76
2023/06/23 08:54:12;;;;;;;15.23;13.83;;;21.10;99.90;;;;;;5097675;28;20568;-78
2023/06/23 08:56:40;;;;;;;13.13;12.03;;;21.30;99.90;;;;;;5099119;28;20476;-78
2023/06/23 08:59:08;;;;;;;14.63;13.53;;;21.20;99.90;;;;;;5101532;28;20808;-80
2023/06/23 09:01:36;;;;;;;13.40;12.20;;;21.20;99.90;;;;;;5097046;28;20520;-77
2023/06/23 09:04:05;;;;;;;14.33;13.03;;;21.50;99.90;;;;;;5096887;28;20559;-77
2023/06/23 09:06:33;;;;;;;13.50;12.37;;;21.50;99.90;;;;;;5096295;28;20662;-77
2023/06/23 09:09:01;;;;;;;12.57;11.50;;;21.80;99.90;;;;;;5096400;28;20449;-78
2023/06/23 09:11:29;;;;;;;12.93;11.80;;;22.20;99.90;;;;;;5096035;28;20474;-77
2023/06/23 09:14:00;;;;;;;14.20;13.10;;;22.10;99.90;;;;;;5098490;28;20474;-77
2023/06/23 09:16:29;;;;;;;13.47;12.27;;;22.10;99.90;;;;;;5101200;28;20505;-77
2023/06/23 09:18:57;;;;;;;13.43;12.33;;;22.20;99.90;;;;;;5102851;28;20959;-78
2023/06/23 09:21:27;;;;;;;12.93;11.83;;;22.50;99.90;;;;;;5104377;28;20460;-77
2023/06/23 09:24:03;;;;;;;12.93;11.60;;;22.60;99.90;;;;;;5102819;28;20837;-77
2023/06/23 09:26:31;;;;;;;12.73;11.53;;;22.50;99.90;;;;;;5101903;28;20432;-77
2023/06/23 09:29:21;;;;;;;12.37;11.27;;;22.40;99.90;;;;;;5101700;28;20529;-77
2023/06/23 09:31:50;;;;;;;11.77;10.70;;;22.30;99.90;;;;;;5094808;28;20458;-78
2023/06/23 09:34:23;;;;;;;10.90;9.90;;;22.70;99.90;;;;;;5100246;28;20445;-76
2023/06/23 09:37:08;;;;;;;12.50;11.50;;;23.20;99.90;;;;;;5098868;28;22343;-77
2023/06/23 09:39:45;;;;;;;12.50;11.57;;;23.10;99.90;;;;;;5099529;28;20459;-78
2023/06/23 09:42:14;;;;;;;11.37;10.40;;;23.10;99.90;;;;;;5099894;28;20557;-78
2023/06/23 09:44:45;;;;;;;11.17;10.27;;;22.90;99.90;;;;;;5099799;28;20451;-77
2023/06/23 09:47:21;;;;;;;10.17;9.27;;;22.70;99.90;;;;;;5100009;28;21006;-78
2023/06/23 09:49:51;;;;;;;9.20;8.40;;;22.90;99.90;;;;;;5098053;28;20450;-79
2023/06/23 09:52:28;;;;;;;9.20;8.40;;;23.20;99.90;;;;;;5098592;28;20468;-78
2023/06/23 09:55:00;;;;;;;8.37;7.67;;;23.40;99.90;;;;;;5098887;28;20478;-78
2023/06/23 09:57:31;;;;;;;9.20;8.30;;;23.30;99.90;;;;;;5098383;28;20476;-78
2023/06/23 10:00:00;;;;;;;8.07;7.37;;;23.50;99.90;;;;;;5097707;28;20455;-78
2023/06/23 10:02:31;;;;;;;13.43;8.13;;;23.70;99.90;;;;;;5097640;28;20533;-79
2023/06/23 10:05:01;;;;;;;7.93;7.30;;;23.50;99.90;;;;;;5097112;28;20455;-80
2023/06/23 10:07:31;;;;;;;7.80;7.20;;;23.90;99.90;;;;;;5096307;28;20971;-79
2023/06/23 10:10:07;;;;;;;9.73;7.87;;;23.40;99.90;;;;;;5096649;28;20534;-78
2023/06/23 10:12:41;;;;;;;6.70;6.20;;;23.60;99.90;;;;;;5095628;28;20471;-78
2023/06/23 10:15:12;;;;;;;7.57;6.90;;;23.90;99.90;;;;;;5097535;28;20427;-81
2023/06/23 10:17:43;;;;;;;8.00;7.40;;;24.20;99.90;;;;;;5098242;28;20486;-78
2023/06/23 10:20:17;;;;;;;8.70;7.97;;;23.90;99.90;;;;;;5098274;28;20448;-79
2023/06/23 10:22:51;;;;;;;9.73;9.00;;;23.70;99.90;;;;;;5097396;28;20476;-80
2023/06/23 10:25:22;;;;;;;8.33;7.73;;;23.50;99.90;;;;;;5097890;28;20455;-78
2023/06/23 10:27:53;;;;;;;8.40;7.60;;;23.80;99.90;;;;;;5098958;28;20428;-79
2023/06/23 10:30:26;;;;;;;9.13;8.33;;;24.40;99.90;;;;;;5099283;28;20448;-79
2023/06/23 10:32:57;;;;;;;9.90;9.10;;;24.00;99.90;;;;;;5084598;28;20465;-80
2023/06/23 10:35:26;;;;;;;8.60;7.90;;;23.70;99.90;;;;;;5078979;28;20452;-77
2023/06/23 10:38:06;;;;;;;8.60;8.00;;;23.40;99.90;;;;;;5080496;28;20475;-77
2023/06/23 10:40:40;;;;;;;7.67;7.07;;;23.30;99.90;;;;;;5081686;28;20526;-80
2023/06/23 10:43:10;;;;;;;8.10;7.50;;;23.10;99.90;;;;;;5082504;28;20612;-80
2023/06/23 10:45:38;;;;;;;7.73;7.03;;;23.00;99.90;;;;;;5082812;28;20449;-80
2023/06/23 10:48:12;;;;;;;7.50;6.97;;;23.10;99.90;;;;;;5084465;28;20453;-78
2023/06/23 10:50:40;;;;;;;9.33;8.37;;;23.40;99.90;;;;;;5086773;28;20449;-80
2023/06/23 10:53:16;;;;;;;8.93;8.10;;;23.50;99.90;;;;;;5089003;28;20508;-78
2023/06/23 10:55:45;;;;;;;8.83;8.20;;;23.40;99.90;;;;;;5091916;28;20441;-79
2023/06/23 10:58:14;;;;;;;8.23;7.53;;;23.60;99.90;;;;;;5088893;28;20534;-76
2023/06/23 11:00:46;;;;;;;7.00;6.50;;;23.70;99.90;;;;;;5088613;28;20455;-76
2023/06/23 11:03:29;;;;;;;7.40;6.57;;;23.90;99.90;;;;;;5088511;28;20469;-79
2023/06/23 11:05:58;;;;;;;7.97;7.37;;;24.40;99.90;;;;;;5097389;28;20436;-78
2023/06/23 11:08:33;;;;;;;7.27;6.70;;;24.70;99.90;;;;;;5107882;28;20447;-78
2023/06/23 11:11:03;;;;;;;9.80;7.93;;;24.60;99.90;;;;;;5108085;28;20420;-78
2023/06/23 11:13:41;;;;;;;7.83;7.13;;;24.10;99.90;;;;;;5107657;28;20558;-78
2023/06/23 11:16:15;;;;;;;8.53;7.73;;;23.80;99.90;;;;;;5110239;28;20447;-78
2023/06/23 11:18:53;;;;;;;8.40;7.80;;;23.70;99.90;;;;;;5111152;28;20482;-78
2023/06/23 11:21:30;;;;;;;8.23;7.30;;;24.10;99.90;;;;;;5102619;28;20427;-78
2023/06/23 11:24:22;;;;;;;8.03;7.00;;;24.40;99.90;;;;;;5100949;28;20463;-77
2023/06/23 11:26:55;;;;;;;7.80;7.10;;;24.90;99.90;;;;;;5099655;28;20444;-79
2023/06/23 11:29:24;;;;;;;6.77;6.17;;;24.90;99.90;;;;;;5099556;28;20777;-77
2023/06/23 11:32:09;;;;;;;6.57;6.07;;;24.50;99.90;;;;;;5102264;28;20499;-77
2023/06/23 11:35:01;;;;;;;6.70;6.17;;;24.80;99.90;;;;;;5106566;28;20513;-79
2023/06/23 11:37:30;;;;;;;7.67;7.07;;;25.10;99.90;;;;;;5083877;28;21074;-76
2023/06/23 11:40:00;;;;;;;7.50;6.77;;;24.80;99.90;;;;;;5101895;28;20455;-77
2023/06/23 11:42:27;;;;;;;8.13;7.33;;;24.90;99.90;;;;;;5097314;28;20464;-79
2023/06/23 11:44:59;;;;;;;8.27;7.57;;;25.30;99.90;;;;;;5102638;28;20474;-78
2023/06/23 11:47:28;;;;;;;7.20;6.70;;;25.50;99.90;;;;;;5104851;28;20955;-77
2023/06/23 11:50:04;;;;;;;7.10;6.60;;;25.10;99.90;;;;;;5104582;28;20463;-78
2023/06/23 11:52:32;;;;;;;7.23;6.30;;;25.10;99.90;;;;;;5106022;28;20494;-77
2023/06/23 11:55:01;;;;;;;5.77;5.37;;;25.90;99.90;;;;;;5107088;28;20428;-78
2023/06/23 11:57:31;;;;;;;6.67;6.17;;;25.30;99.90;;;;;;5102899;28;20445;-78
2023/06/23 11:59:58;;;;;;;7.43;6.93;;;25.30;99.90;;;;;;5100042;28;20543;-79
2023/06/23 12:02:26;;;;;;;8.03;7.43;;;24.70;99.90;;;;;;5099049;28;20508;-78
2023/06/23 12:04:57;;;;;;;7.00;6.40;;;24.20;99.90;;;;;;5099007;28;20484;-76
2023/06/23 12:07:28;;;;;;;7.30;6.63;;;24.40;99.90;;;;;;5100099;28;21052;-76
2023/06/23 12:09:56;;;;;;;8.00;7.20;;;24.90;99.90;;;;;;5100715;28;20452;-78
2023/06/23 12:12:25;;;;;;;8.07;7.47;;;;;;;;;;5102308;28;20491;-78
2023/06/23 12:14:59;;;;;;;7.70;7.10;;;;;;;;;;5103741;28;20444;-78
2023/06/23 12:17:26;;;;;;;7.33;6.83;;;;;;;;;;5104229;28;20507;-77
2023/06/23 12:19:54;;;;;;;6.20;5.70;;;;;;;;;;5104158;28;20455;-78
2023/06/23 12:22:22;;;;;;;5.80;5.40;;;;;;;;;;5103842;28;20828;-77
2023/06/23 12:24:49;;;;;;;6.30;5.80;;;;;;;;;;5103689;28;20509;-76
2023/06/23 12:27:18;;;;;;;5.83;5.43;;;;;;;;;;5103635;28;20469;-77
2023/06/23 12:29:46;;;;;;;9.00;5.03;;;;;;;;;;5104434;28;20515;-77
2023/06/23 12:32:14;;;;;;;5.70;5.30;;;;;;;;;;5104007;28;20489;-77
2023/06/23 12:34:44;;;;;;;5.60;5.20;;;;;;;;;;5103704;28;20467;-77
2023/06/23 12:37:17;;;;;;;6.60;6.10;;;;;;;;;;5104428;28;20548;-76
2023/06/23 12:39:51;;;;;;;7.00;6.50;;;;;;;;;;5096145;28;20478;-78
2023/06/23 12:42:19;;;;;;;7.17;6.50;;;;;;;;;;5095349;28;20477;-79
2023/06/23 12:44:49;;;;;;;6.40;5.83;;;;;;;;;;5096204;28;20487;-78
2023/06/23 12:47:17;;;;;;;7.13;6.53;;;;;;;;;;5096772;28;20944;-78
2023/06/23 12:49:44;;;;;;;6.87;5.97;;;;;;;;;;5097282;28;20455;-79
2023/06/23 12:52:12;;;;;;;6.23;5.60;;;;;;;;;;5102744;28;20562;-77
2023/06/23 12:54:40;;;;;;;6.63;6.03;;;;;;;;;;5103281;28;20449;-77
2023/06/23 12:57:07;;;;;;;6.53;6.03;;;;;;;;;;5104219;28;20434;-78
2023/06/23 12:59:35;;;;;;;6.17;5.67;;;;;;;;;;5103719;28;20474;-77
2023/06/23 13:02:06;;;;;;;6.40;6.00;;;;;;;;;;5103502;28;21013;-78
2023/06/23 13:04:33;;;;;;;6.00;5.40;;;;;;;;;;5103937;28;20446;-76
2023/06/23 13:07:01;;;;;;;5.57;5.10;;;;;;;;;;5105248;28;20877;-78
2023/06/23 13:09:28;;;;;;;5.67;5.27;;;;;;;;;;5106686;28;20470;-78
2023/06/23 13:11:56;;;;;;;4.93;4.53;;;;;;;;;;5102188;28;20447;-77
2023/06/23 13:14:25;;;;;;;5.43;4.70;;;;;;;;;;5095940;28;20496;-77
2023/06/23 13:16:53;;;;;;;4.53;4.23;;;;;;;;;;5096660;28;20490;-78
2023/06/23 13:19:22;;;;;;;5.20;4.80;;;;;;;;;;5095293;28;20482;-79
2023/06/23 13:21:51;;;;;;;4.40;4.10;;;;;;;;;;5095397;28;20502;-78
2023/06/23 13:24:20;;;;;;;4.33;3.93;;;;;;;;;;5094969;28;20455;-79
2023/06/23 13:26:48;;;;;;;4.13;3.83;;;;;;;;;;5095600;28;20483;-79
2023/06/23 13:29:16;;;;;;;3.90;3.60;;;;;;;;;;5095389;28;20460;-79
2023/06/23 13:31:44;;;;;;;3.40;3.20;;;;;;;;;;5095243;28;20474;-79
2023/06/23 13:34:12;;;;;;;4.20;3.80;;;;;;;;;;5096040;28;20452;-80
2023/06/23 13:36:41;;;;;;;4.33;4.03;;;;;;;;;;5095800;28;20512;-78
2023/06/23 13:39:09;;;;;;;3.77;3.47;;;;;;;;;;5095386;28;20472;-77
2023/06/23 13:41:37;;;;;;;4.00;3.63;;;;;;;;;;5095763;28;20531;-78
2023/06/23 13:44:06;;;;;;;3.73;3.50;;;;;;;;;;5096673;28;20551;-78
2023/06/23 13:46:34;;;;;;;4.27;3.97;;;;;;;;;;5097079;28;20452;-78
2023/06/23 13:49:01;;;;;;;4.17;3.87;;;;;;;;;;5098789;28;20468;-77
2023/06/23 13:51:29;;;;;;;3.70;3.43;;;;;;;;;;5096000;28;20443;-78
2023/06/23 13:53:59;;;;;;;3.87;3.60;;;;;;;;;;5095068;28;20476;-78
2023/06/23 13:56:27;;;;;;;3.80;3.50;;;;;;;;;;5095928;28;20439;-78
2023/06/23 13:58:54;;;;;;;4.30;3.90;;;;;;;;;;5099421;28;20517;-77
2023/06/23 14:01:22;;;;;;;4.40;4.00;;;;;;;;;;5097850;28;20452;-78
2023/06/23 14:03:51;;;;;;;3.83;3.43;;;;;;;;;;5096717;28;20523;-78
2023/06/23 14:06:19;;;;;;;4.03;3.63;;;;;;;;;;5097240;28;20457;-78
2023/06/23 14:08:47;;;;;;;4.67;3.50;;;;;;;;;;5097036;28;20450;-77
2023/06/23 14:11:16;;;;;;;4.00;3.70;;;;;;;;;;5094855;28;20526;-79
2023/06/23 14:13:50;;;;;;;4.07;3.67;;;;;;;;;;5094754;28;20467;-79
2023/06/23 14:16:17;;;;;;;4.00;3.77;;;;;;;;;;5094411;28;20438;-78
2023/06/23 14:18:45;;;;;;;5.80;3.53;;;;;;;;;;5094457;28;20475;-77
2023/06/23 14:21:13;;;;;;;6.93;3.70;;;;;;;;;;5095535;28;20534;-79
2023/06/23 14:23:40;;;;;;;3.70;3.40;;;;;;;;;;5095419;28;20548;-79
2023/06/23 14:26:08;;;;;;;4.00;3.70;;;;;;;;;;5095636;28;20442;-78
2023/06/23 14:28:38;;;;;;;4.10;3.80;;;;;;;;;;5096771;28;20452;-79
2023/06/23 14:31:07;;;;;;;4.70;3.63;;;;;;;;;;5098450;28;20454;-78
2023/06/23 14:33:35;;;;;;;3.63;3.40;;;;;;;;;;5100933;28;20472;-77
2023/06/23 14:36:03;;;;;;;4.10;3.80;;;;;;;;;;5097036;28;20429;-78
2023/06/23 14:38:31;;;;;;;3.90;3.60;;;;;;;;;;5097273;28;20490;-78
2023/06/23 14:40:59;;;;;;;4.30;3.90;;;;;;;;;;5096648;28;20513;-80
2023/06/23 14:43:27;;;;;;;4.87;4.47;;;;;;;;;;5096450;28;20518;-77
2023/06/23 14:45:57;;;;;;;5.33;4.23;;;;;;;;;;5095661;28;20457;-78
2023/06/23 14:48:25;;;;;;;4.27;3.97;;;;;;;;;;5096084;28;21094;-78
2023/06/23 14:50:53;;;;;;;4.63;4.17;;;;;;;;;;5095251;28;20451;-78
2023/06/23 14:53:21;;;;;;;3.97;3.67;;;;;;;;;;5095413;28;20469;-78
2023/06/23 14:55:49;;;;;;;4.60;4.20;;;;;;;;;;5095884;28;20470;-77